Time;durP1;ratioP1;P1;durP2;ratioP2;P2;SDS_P1;SDS_P2;PMS_P1;PMS_P2;Temp;Humidity;BMP_temperature;BMP_pressure;BME280_temperature;BME280_humidity;BME280_pressure;Samples;Min_cycle;Max_cycle;Signal;HPM_P1;HPM_P2
2023/09/07 00:01:48;;;;;;;3.42;2.30;;;19.20;99.90;;;19.69;100.00;101338.63;5202880;28;20052;-55
2023/09/07 00:04:24;;;;;;;4.60;2.80;;;19.20;99.90;;;19.68;100.00;101342.13;5203762;28;20045;-51
2023/09/07 00:06:56;;;;;;;4.03;2.63;;;19.20;99.90;;;19.66;100.00;101336.84;5201660;28;20062;-51
2023/09/07 00:09:29;;;;;;;3.92;2.88;;;19.20;99.90;;;19.62;100.00;101345.63;5199785;28;20038;-51
2023/09/07 00:12:01;;;;;;;4.35;2.63;;;19.10;99.90;;;19.59;100.00;101337.69;5218301;28;20057;-51
2023/09/07 00:14:34;;;;;;;3.67;2.22;;;19.10;99.90;;;19.59;100.00;101335.03;5199239;28;20462;-51
2023/09/07 00:17:08;;;;;;;4.43;2.70;;;19.10;99.90;;;19.59;100.00;101334.16;5219218;28;20057;-50
2023/09/07 00:19:40;;;;;;;4.20;2.97;;;19.10;99.90;;;19.57;100.00;101331.47;5202987;28;20088;-51
2023/09/07 00:22:12;;;;;;;4.70;2.92;;;19.10;99.90;;;19.58;100.00;101333.28;5206869;28;20045;-50
2023/09/07 00:24:45;;;;;;;5.13;3.10;;;19.10;99.90;;;19.58;100.00;101338.56;5199570;28;20117;-51
2023/09/07 00:27:17;;;;;;;5.05;3.00;;;19.10;99.90;;;19.56;100.00;101329.72;5199349;28;20129;-51
2023/09/07 00:29:50;;;;;;;4.43;2.88;;;19.10;99.90;;;19.51;100.00;101327.03;5216602;28;20516;-51
2023/09/07 00:32:24;;;;;;;4.78;2.80;;;19.10;99.90;;;19.50;100.00;101324.38;5203087;28;20052;-51
2023/09/07 00:34:56;;;;;;;4.00;2.70;;;19.00;99.90;;;19.45;100.00;101323.47;5200760;28;20103;-51
2023/09/07 00:37:28;;;;;;;3.70;2.63;;;19.00;99.90;;;19.41;100.00;101321.66;5202921;28;20141;-50
2023/09/07 00:40:03;;;;;;;4.10;2.47;;;18.90;99.90;;;19.36;100.00;101329.56;5203213;28;21293;-51
2023/09/07 00:42:36;;;;;;;3.80;2.70;;;18.90;99.90;;;19.31;100.00;101323.38;5198532;28;20068;-51
2023/09/07 00:45:10;;;;;;;3.85;2.85;;;18.80;99.90;;;19.24;100.00;101329.50;5218299;28;20038;-51
2023/09/07 00:47:43;;;;;;;4.18;2.83;;;18.80;99.90;;;19.17;100.00;101323.28;5219374;28;20533;-51
2023/09/07 00:50:16;;;;;;;4.28;3.00;;;18.70;99.90;;;19.10;100.00;101321.41;5195236;28;20049;-50
2023/09/07 00:52:49;;;;;;;3.72;2.53;;;18.70;99.90;;;19.06;100.00;101335.50;5202088;28;20080;-50
2023/09/07 00:55:22;;;;;;;4.20;2.70;;;18.60;99.90;;;19.01;100.00;101326.63;5198937;28;20050;-51
2023/09/07 00:57:56;;;;;;;4.63;2.60;;;18.60;99.90;;;18.95;100.00;101338.03;5216351;28;20488;-50
2023/09/07 01:00:29;;;;;;;3.63;2.47;;;18.50;99.90;;;18.90;100.00;101331.81;5201954;28;20055;-50
2023/09/07 01:03:03;;;;;;;5.18;3.05;;;18.40;99.90;;;18.86;100.00;101329.16;5200170;28;20503;-51
2023/09/07 01:05:47;;;;;;;4.03;2.60;;;18.40;99.90;;;18.83;100.00;101329.09;5202478;28;20053;-50
2023/09/07 01:08:26;;;;;;;4.93;3.00;;;18.40;99.90;;;18.81;100.00;101336.16;5198709;28;20061;-51
2023/09/07 01:10:58;;;;;;;4.07;2.78;;;18.40;99.90;;;18.78;100.00;101338.75;5216387;28;20041;-52
2023/09/07 01:13:31;;;;;;;4.70;2.83;;;18.30;99.90;;;18.76;100.00;101335.22;5201854;28;20537;-50
2023/09/07 01:16:04;;;;;;;3.72;2.75;;;18.30;99.90;;;18.73;100.00;101330.78;5202022;28;20443;-51
2023/09/07 01:18:38;;;;;;;4.20;2.60;;;18.30;99.90;;;18.70;100.00;101323.69;5202073;28;20049;-49
2023/09/07 01:21:14;;;;;;;4.68;2.47;;;18.30;99.90;;;18.69;100.00;101326.34;5201333;28;20399;-50
2023/09/07 01:23:49;;;;;;;4.10;2.72;;;18.20;99.90;;;18.70;100.00;101315.78;5203312;28;20045;-50
2023/09/07 01:26:21;;;;;;;5.20;3.15;;;18.30;99.90;;;18.74;100.00;101318.47;5198235;28;20454;-50
2023/09/07 01:28:54;;;;;;;4.15;2.70;;;18.30;99.90;;;18.77;100.00;101303.53;5215469;28;20515;-50
2023/09/07 01:31:26;;;;;;;5.20;2.60;;;18.30;99.90;;;18.83;100.00;101315.91;5201239;28;20042;-50
2023/09/07 01:33:58;;;;;;;4.18;2.75;;;18.40;99.90;;;18.85;100.00;101306.25;5200556;28;20080;-50
2023/09/07 01:36:31;;;;;;;4.38;2.80;;;18.40;99.90;;;18.86;100.00;101310.66;5202278;28;20502;-50
2023/09/07 01:39:06;;;;;;;3.80;2.60;;;18.40;99.90;;;18.84;100.00;101307.09;5200080;28;20092;-50
2023/09/07 01:41:39;;;;;;;3.75;2.67;;;18.40;99.90;;;18.82;100.00;101304.44;5197447;28;20052;-50
2023/09/07 01:44:12;;;;;;;5.25;2.95;;;18.40;99.90;;;18.78;100.00;101302.69;5217101;28;20099;-51
2023/09/07 01:46:44;;;;;;;5.60;2.78;;;18.30;99.90;;;18.76;100.00;101300.88;5202098;28;20140;-50
2023/09/07 01:49:17;;;;;;;4.07;2.80;;;18.30;99.90;;;18.74;100.00;101299.97;5197601;28;20045;-50
2023/09/07 01:51:52;;;;;;;5.43;2.85;;;18.30;99.90;;;18.72;100.00;101301.75;5196720;28;20483;-51
2023/09/07 01:54:26;;;;;;;4.10;2.67;;;18.30;99.90;;;18.69;100.00;101303.47;5201714;28;20064;-50
2023/09/07 01:56:59;;;;;;;;;;;18.20;99.90;;;18.66;100.00;101300.81;5201510;28;20080;-50
2023/09/07 01:59:31;;;;;;;4.00;2.65;;;18.20;99.90;;;18.63;100.00;101306.00;5197750;28;20007;-50
2023/09/07 02:02:04;;;;;;;3.80;2.92;;;18.20;99.90;;;18.59;100.00;101306.88;5215284;28;20038;-51
2023/09/07 02:04:37;;;;;;;3.50;2.40;;;18.20;99.90;;;18.57;100.00;101307.69;5197677;28;20066;-50
2023/09/07 02:07:09;;;;;;;4.03;2.95;;;18.10;99.90;;;18.54;100.00;101308.56;5216562;28;20607;-50
2023/09/07 02:09:43;;;;;;;3.83;2.40;;;18.10;99.90;;;18.50;100.00;101314.66;5201494;28;20067;-50
2023/09/07 02:12:16;;;;;;;3.33;2.38;;;18.10;99.90;;;18.49;100.00;101304.97;5200677;28;20128;-51
2023/09/07 02:14:48;;;;;;;5.18;2.85;;;18.00;99.90;;;18.48;100.00;101303.22;5197583;28;20060;-49
2023/09/07 02:17:21;;;;;;;6.32;2.92;;;18.00;99.90;;;18.50;100.00;101306.75;5193343;28;20042;-51
2023/09/07 02:19:53;;;;;;;4.65;2.72;;;18.00;99.90;;;18.52;100.00;101302.38;5200825;28;20045;-50
2023/09/07 02:22:26;;;;;;;4.80;2.80;;;18.10;99.90;;;18.51;100.00;101297.94;5201114;28;20045;-50
2023/09/07 02:24:59;;;;;;;4.13;2.60;;;18.10;99.90;;;18.50;100.00;101306.75;5200966;28;20049;-50
2023/09/07 02:27:32;;;;;;;3.67;2.63;;;18.10;99.90;;;18.50;100.00;101304.09;5197324;28;20041;-50
2023/09/07 02:30:07;;;;;;;4.57;2.67;;;18.00;99.90;;;18.49;100.00;101304.97;5213284;28;20469;-51
2023/09/07 02:32:39;;;;;;;5.60;3.33;;;18.10;99.90;;;18.49;100.00;101299.69;5200643;28;20095;-50
2023/09/07 02:35:12;;;;;;;4.55;3.03;;;18.10;99.90;;;18.51;100.00;101297.94;5199431;28;20514;-51
2023/09/07 02:37:46;;;;;;;5.15;2.83;;;18.10;99.90;;;18.53;100.00;101300.63;5197395;28;20049;-50
2023/09/07 02:40:20;;;;;;;5.28;3.05;;;18.10;99.90;;;18.57;100.00;101298.00;5217036;28;20465;-51
2023/09/07 02:42:52;;;;;;;3.83;2.80;;;18.10;99.90;;;18.60;100.00;101298.06;5200594;28;20310;-51
2023/09/07 02:45:25;;;;;;;4.00;2.60;;;18.20;99.90;;;18.63;100.00;101300.72;5199422;28;20046;-53
2023/09/07 02:47:57;;;;;;;3.92;2.63;;;18.20;99.90;;;18.65;100.00;101295.47;5215391;28;20046;-52
2023/09/07 02:50:33;;;;;;;4.95;3.03;;;18.20;99.90;;;18.66;100.00;101291.97;5205513;28;20060;-53
2023/09/07 02:53:06;;;;;;;4.47;2.55;;;18.30;99.90;;;18.64;100.00;101299.84;5202182;28;20470;-52
2023/09/07 02:55:42;;;;;;;4.07;2.50;;;18.20;99.90;;;18.59;100.00;101298.94;5201219;28;20049;-52
2023/09/07 02:58:14;;;;;;;4.70;2.58;;;18.20;99.90;;;18.52;100.00;101299.75;5220225;28;20061;-52
2023/09/07 03:00:47;;;;;;;4.05;2.80;;;18.10;99.90;;;18.47;100.00;101301.44;5201314;28;20827;-52
2023/09/07 03:03:22;;;;;;;5.15;2.80;;;18.10;99.90;;;18.43;100.00;101304.91;5220632;28;20048;-53
2023/09/07 03:05:55;;;;;;;4.60;2.60;;;18.00;99.90;;;18.41;100.00;101311.94;5204312;28;20045;-52
2023/09/07 03:08:28;;;;;;;3.08;2.40;;;18.00;99.90;;;18.37;100.00;101304.84;5201143;28;20049;-53
2023/09/07 03:11:05;;;;;;;4.20;2.42;;;18.00;99.90;;;18.33;100.00;101303.06;5201563;28;20073;-52
2023/09/07 03:13:39;;;;;;;4.13;2.60;;;17.90;99.90;;;18.26;100.00;101303.88;5204288;28;20057;-53
2023/09/07 03:16:11;;;;;;;4.50;2.42;;;17.90;99.90;;;18.20;100.00;101302.03;5202616;28;20515;-52
2023/09/07 03:18:47;;;;;;;3.90;2.80;;;17.80;99.90;;;18.17;100.00;101304.63;5201064;28;20038;-53
2023/09/07 03:21:20;;;;;;;4.18;2.42;;;17.70;99.90;;;18.12;100.00;101301.03;5219647;28;20384;-52
2023/09/07 03:23:53;;;;;;;4.25;2.70;;;17.70;99.90;;;18.08;100.00;101307.16;5200326;28;20050;-52
2023/09/07 03:26:27;;;;;;;4.45;2.70;;;17.70;99.90;;;18.03;100.00;101311.47;5204608;28;20045;-52
2023/09/07 03:28:59;;;;;;;4.35;2.50;;;17.60;99.90;;;17.97;100.00;101304.38;5204090;28;20495;-52
2023/09/07 03:31:32;;;;;;;2.83;2.47;;;17.60;99.90;;;17.88;100.00;101301.63;5203841;28;20084;-52
2023/09/07 03:34:05;;;;;;;3.85;2.42;;;17.50;99.90;;;17.83;100.00;101301.56;5203751;28;20049;-52
2023/09/07 03:36:38;;;;;;;4.97;2.88;;;17.50;99.90;;;17.78;100.00;101305.00;5200113;28;20153;-52
2023/09/07 03:39:10;;;;;;;3.75;2.53;;;17.40;99.90;;;17.73;100.00;101309.31;5218643;28;20053;-52
2023/09/07 03:41:44;;;;;;;5.10;2.90;;;17.40;99.90;;;17.68;100.00;101308.38;5203920;28;20042;-51
2023/09/07 03:44:16;;;;;;;4.82;2.83;;;17.30;99.90;;;17.63;100.00;101303.91;5204107;28;20045;-52
2023/09/07 03:46:52;;;;;;;3.65;2.20;;;17.30;99.90;;;17.59;100.00;101302.06;5204162;28;20141;-52
2023/09/07 03:49:25;;;;;;;4.97;2.72;;;17.20;99.90;;;17.55;100.00;101302.91;5203780;28;20041;-52
2023/09/07 03:51:57;;;;;;;4.80;2.42;;;17.20;99.90;;;17.50;100.00;101296.69;5199213;28;20034;-51
2023/09/07 03:54:32;;;;;;;4.53;2.45;;;17.10;99.90;;;17.47;100.00;101301.91;5204394;28;20500;-52
2023/09/07 03:57:06;;;;;;;4.53;2.65;;;17.10;99.90;;;17.47;100.00;101296.63;5199340;28;20054;-53
2023/09/07 03:59:38;;;;;;;5.28;2.90;;;17.10;99.90;;;17.48;100.00;101293.16;5199770;28;20081;-51
2023/09/07 04:02:11;;;;;;;4.50;3.10;;;17.10;99.90;;;17.49;100.00;101300.19;5215247;28;20096;-52
2023/09/07 04:04:43;;;;;;;3.90;2.90;;;17.10;99.90;;;17.51;100.00;101294.94;5199965;28;20049;-54
2023/09/07 04:07:16;;;;;;;4.50;2.80;;;17.10;99.90;;;17.53;100.00;101301.97;5218518;28;20053;-52
2023/09/07 04:09:48;;;;;;;4.13;2.75;;;17.10;99.90;;;17.53;100.00;101303.75;5188594;28;20140;-52
2023/09/07 04:12:22;;;;;;;4.25;2.53;;;17.10;99.90;;;17.52;100.00;101294.94;5201755;28;20513;-53
2023/09/07 04:14:55;;;;;;;5.57;3.00;;;17.10;99.90;;;17.50;100.00;101296.69;5199902;28;20072;-53
2023/09/07 04:17:27;;;;;;;4.30;2.70;;;17.10;99.90;;;17.46;100.00;101289.59;5219940;28;20053;-52
2023/09/07 04:20:00;;;;;;;4.10;2.63;;;17.10;99.90;;;17.44;100.00;101290.44;5199626;28;20042;-52
2023/09/07 04:22:32;;;;;;;3.58;2.47;;;17.10;99.90;;;17.41;100.00;101291.28;5198924;28;20049;-52
2023/09/07 04:25:06;;;;;;;3.45;2.78;;;17.00;99.90;;;17.40;100.00;101294.75;5216388;28;20049;-52
2023/09/07 04:27:41;;;;;;;3.60;2.70;;;17.00;99.90;;;17.39;100.00;101297.38;5203529;28;20045;-53
2023/09/07 04:30:14;;;;;;;4.10;2.40;;;17.00;99.90;;;17.36;100.00;101293.84;5203221;28;20073;-52
2023/09/07 04:32:47;;;;;;;4.93;2.83;;;17.00;99.90;;;17.35;100.00;101307.00;5198344;28;20042;-53
2023/09/07 04:35:19;;;;;;;3.63;2.13;;;17.00;99.90;;;17.32;100.00;101296.41;5218114;28;20056;-52
2023/09/07 04:37:51;;;;;;;3.97;2.50;;;16.90;99.90;;;17.31;100.00;101295.53;5198899;28;20038;-52
2023/09/07 04:40:25;;;;;;;3.80;2.72;;;16.90;99.90;;;17.31;100.00;101297.28;5218650;28;20072;-52
2023/09/07 04:42:59;;;;;;;3.78;2.65;;;16.90;99.90;;;17.30;100.00;101299.03;5198735;28;20049;-53
2023/09/07 04:45:31;;;;;;;4.22;2.35;;;16.90;99.90;;;17.31;100.00;101299.91;5207630;28;20061;-52
2023/09/07 04:48:05;;;;;;;4.05;2.20;;;16.90;99.90;;;17.31;100.00;101305.19;5195536;28;20470;-55
2023/09/07 04:50:37;;;;;;;4.72;2.55;;;16.90;99.90;;;17.31;100.00;101305.19;5202897;28;20415;-52
2023/09/07 04:53:10;;;;;;;3.75;2.47;;;16.90;99.90;;;17.31;100.00;101299.91;5199101;28;20411;-51
2023/09/07 04:55:42;;;;;;;4.47;2.55;;;16.90;99.90;;;17.31;100.00;101306.06;5198741;28;20054;-52
2023/09/07 04:58:16;;;;;;;4.43;2.25;;;17.00;99.90;;;17.32;100.00;101313.09;5216784;28;20426;-51
2023/09/07 05:00:52;;;;;;;4.63;3.10;;;17.00;99.90;;;17.30;100.00;101314.84;5203072;28;20069;-52
2023/09/07 05:03:24;;;;;;;4.65;2.70;;;16.90;99.90;;;17.27;100.00;101313.88;5201884;28;20044;-52
2023/09/07 05:05:57;;;;;;;3.70;2.80;;;16.90;99.90;;;17.25;100.00;101310.34;5198756;28;20042;-51
2023/09/07 05:08:29;;;;;;;4.18;2.95;;;16.90;99.90;;;17.22;100.00;101316.47;5218267;28;20053;-53
2023/09/07 05:11:04;;;;;;;4.63;2.35;;;16.80;99.90;;;17.22;100.00;101315.59;5198378;28;20380;-52
2023/09/07 05:13:38;;;;;;;4.57;2.92;;;16.90;99.90;;;17.20;100.00;101312.03;5190518;28;20057;-53
2023/09/07 05:16:11;;;;;;;4.35;2.92;;;16.80;99.90;;;17.20;100.00;101312.03;5215384;28;20053;-51
2023/09/07 05:18:43;;;;;;;4.60;2.70;;;16.80;99.90;;;17.21;100.00;101312.03;5218922;28;20136;-53
2023/09/07 05:21:16;;;;;;;4.75;2.92;;;16.80;99.90;;;17.25;100.00;101310.34;5193517;28;20088;-52
2023/09/07 05:23:49;;;;;;;4.50;2.58;;;16.90;99.90;;;17.26;100.00;101313.00;5202372;28;20246;-52
2023/09/07 05:26:24;;;;;;;4.40;2.90;;;16.90;99.90;;;17.28;100.00;101321.84;5200667;28;20105;-53
2023/09/07 05:28:59;;;;;;;5.10;3.20;;;16.90;99.90;;;17.29;100.00;101323.59;5190225;28;20052;-52
2023/09/07 05:31:31;;;;;;;4.55;2.60;;;16.90;99.90;;;17.32;100.00;101328.03;5217758;28;20041;-51
2023/09/07 05:34:04;;;;;;;4.10;2.88;;;17.00;99.90;;;17.34;100.00;101328.94;5198158;28;20093;-52
2023/09/07 05:36:36;;;;;;;5.50;2.90;;;17.00;99.90;;;17.36;100.00;101325.47;5194231;28;20049;-53
2023/09/07 05:39:09;;;;;;;5.25;2.95;;;17.00;99.90;;;17.39;100.00;101329.88;5198194;28;20511;-53
2023/09/07 05:41:41;;;;;;;5.22;3.03;;;17.00;99.90;;;17.42;100.00;101327.31;5196503;28;20526;-53
2023/09/07 05:44:15;;;;;;;3.78;2.50;;;17.10;99.90;;;17.46;100.00;101342.28;5198603;28;20053;-53
2023/09/07 05:46:48;;;;;;;4.63;3.08;;;17.10;99.90;;;17.50;100.00;101338.84;5202134;28;20337;-52
2023/09/07 05:49:20;;;;;;;4.30;2.63;;;17.10;99.90;;;17.55;100.00;101329.28;5200047;28;20052;-52
2023/09/07 05:51:53;;;;;;;5.90;3.08;;;17.20;99.90;;;17.62;100.00;101339.03;5201263;28;20089;-52
2023/09/07 05:54:25;;;;;;;5.15;2.65;;;17.20;99.90;;;17.67;100.00;101335.56;5201161;28;20148;-53
2023/09/07 05:56:58;;;;;;;6.78;3.03;;;17.30;99.90;;;17.72;100.00;101334.81;5197741;28;20140;-52
2023/09/07 05:59:32;;;;;;;4.63;2.80;;;17.30;99.90;;;17.76;100.00;101335.75;5216611;28;20225;-52
2023/09/07 06:02:04;;;;;;;5.25;2.50;;;17.40;99.90;;;17.80;100.00;101332.28;5197454;28;20406;-52
2023/09/07 06:04:37;;;;;;;4.43;2.60;;;17.40;99.90;;;17.85;100.00;101341.13;5193365;28;20132;-52
2023/09/07 06:07:13;;;;;;;4.20;2.70;;;17.50;99.90;;;17.92;100.00;101335.06;5197611;28;20058;-52
2023/09/07 06:09:45;;;;;;;5.28;2.60;;;17.50;99.90;;;18.00;100.00;101336.09;5197520;28;20050;-52
2023/09/07 06:12:19;;;;;;;5.35;2.67;;;17.60;99.90;;;18.10;100.00;101337.97;5214047;28;20037;-52
2023/09/07 06:14:53;;;;;;;4.05;2.50;;;17.60;99.90;;;18.24;100.00;101342.53;5196834;28;20045;-51
2023/09/07 06:17:25;;;;;;;4.97;2.80;;;17.80;99.90;;;18.42;100.00;101351.53;5215857;28;20054;-51
2023/09/07 06:19:58;;;;;;;4.18;3.22;;;17.90;99.90;;;18.72;100.00;101344.88;5196730;28;20050;-52
2023/09/07 06:22:31;;;;;;;6.28;3.55;;;18.20;99.90;;;19.23;100.00;101347.09;5215301;28;20057;-51
2023/09/07 06:25:08;;;;;;;5.35;3.60;;;18.60;99.90;;;19.88;100.00;101351.06;5201475;28;20046;-53
2023/09/07 06:27:40;;;;;;;8.48;3.45;;;19.20;99.90;;;20.52;100.00;101361.09;5193523;28;20053;-52
2023/09/07 06:30:15;;;;;;;6.25;3.50;;;19.70;99.90;;;21.18;100.00;101361.19;5200732;28;20052;-51
2023/09/07 06:32:48;;;;;;;6.65;3.55;;;20.30;99.90;;;21.79;100.00;101359.41;5196623;28;20534;-54
2023/09/07 06:35:21;;;;;;;5.25;3.20;;;20.80;99.90;;;22.33;100.00;101370.75;5212628;28;20062;-55
2023/09/07 06:37:54;;;;;;;5.70;3.17;;;21.40;99.90;;;22.70;100.00;101367.91;5196822;28;20049;-55
2023/09/07 06:40:29;;;;;;;6.63;3.70;;;21.80;99.90;;;23.01;99.67;101369.47;5216220;28;20063;-55
2023/09/07 06:43:05;;;;;;;;;;;22.10;99.90;;;23.31;98.04;101371.91;5197068;28;20061;-55
2023/09/07 06:45:39;;;;;;;6.93;3.75;;;22.50;99.90;;;23.57;95.65;101375.22;5200541;28;19929;-56
2023/09/07 06:48:12;;;;;;;5.18;3.30;;;22.80;99.90;;;23.79;94.17;101375.91;5200502;28;20068;-55
2023/09/07 06:50:45;;;;;;;6.15;3.33;;;23.00;99.90;;;23.97;92.74;101377.50;5196760;28;20499;-56
2023/09/07 06:53:17;;;;;;;8.65;3.25;;;23.20;99.90;;;24.12;92.18;101379.97;5202283;28;20037;-55
2023/09/07 06:55:58;;;;;;;6.72;3.80;;;23.30;99.90;;;24.24;91.34;101384.28;5200772;28;20049;-54
2023/09/07 06:58:32;;;;;;;5.13;3.22;;;23.50;99.70;;;24.45;90.49;101380.50;5200251;28;20053;-55
2023/09/07 07:01:07;;;;;;;5.07;3.08;;;23.60;99.30;;;24.70;89.79;101389.03;5200762;28;20399;-54
2023/09/07 07:03:40;;;;;;;5.18;3.47;;;23.80;99.00;;;24.92;88.80;101387.84;5199841;28;20065;-55
2023/09/07 07:06:13;;;;;;;4.95;2.85;;;24.00;98.60;;;25.13;88.67;101390.19;5200478;28;20049;-54
2023/09/07 07:08:45;;;;;;;6.90;3.13;;;24.30;98.50;;;25.26;86.15;101382.00;5217244;28;20056;-55
2023/09/07 07:11:24;;;;;;;4.93;3.05;;;24.40;97.50;;;25.45;86.12;101386.13;5200011;28;20049;-55
2023/09/07 07:13:57;;;;;;;5.90;2.92;;;24.60;97.30;;;25.60;85.11;101387.63;5196317;28;20128;-55
2023/09/07 07:16:31;;;;;;;5.50;2.85;;;24.70;96.80;;;25.61;85.04;101392.94;5215101;28;20107;-55
2023/09/07 07:19:03;;;;;;;4.78;2.75;;;24.80;96.50;;;25.70;84.16;101394.56;5200690;28;20061;-55
2023/09/07 07:21:36;;;;;;;4.18;3.00;;;24.90;96.00;;;25.83;84.37;101389.94;5199448;28;20045;-55
2023/09/07 07:24:09;;;;;;;;;;;25.10;95.90;;;25.96;84.13;101383.44;5197390;28;20038;-56
2023/09/07 07:26:43;;;;;;;4.35;2.92;;;25.20;95.80;;;26.13;83.10;101391.09;5200759;28;19920;-55
2023/09/07 07:29:15;;;;;;;4.43;2.80;;;25.30;95.60;;;26.23;82.58;101398.03;5200544;28;20048;-54
2023/09/07 07:31:49;;;;;;;6.10;3.30;;;25.40;95.00;;;26.38;82.23;101394.16;5198416;28;20046;-55
2023/09/07 07:34:22;;;;;;;6.15;3.03;;;25.50;94.90;;;26.54;81.92;101390.28;5214692;28;20033;-55
2023/09/07 07:36:54;;;;;;;5.05;3.25;;;25.70;94.60;;;26.61;80.99;101394.56;5200545;28;20066;-55
2023/09/07 07:39:27;;;;;;;6.30;3.28;;;25.70;94.10;;;26.66;80.92;101397.13;5218190;28;20041;-55
2023/09/07 07:42:00;;;;;;;4.45;2.95;;;25.80;93.90;;;26.86;80.97;101399.34;5200095;28;20045;-55
2023/09/07 07:44:32;;;;;;;4.60;3.05;;;25.90;93.90;;;27.08;80.29;101391.75;5218838;28;20056;-56
2023/09/07 07:47:06;;;;;;;5.65;2.92;;;26.10;93.70;;;27.21;78.95;101401.22;5204203;28;20045;-55
2023/09/07 07:49:40;;;;;;;6.60;3.35;;;26.30;93.10;;;27.33;78.83;101390.22;5203128;28;20556;-56
2023/09/07 07:52:13;;;;;;;5.18;3.15;;;26.40;92.90;;;27.41;78.31;101395.38;5199363;28;20038;-55
2023/09/07 07:54:45;;;;;;;6.15;2.90;;;26.50;92.50;;;27.50;78.22;101392.44;5203970;28;20041;-55
2023/09/07 07:57:21;;;;;;;6.25;3.08;;;26.50;92.50;;;27.70;78.14;101394.63;5203414;28;20099;-55
2023/09/07 07:59:54;;;;;;;5.88;3.20;;;26.70;92.70;;;27.92;77.77;101394.97;5203884;28;20038;-55
2023/09/07 08:02:28;;;;;;;5.07;2.92;;;26.90;92.20;;;28.13;77.29;101399.69;5203013;28;20520;-56
2023/09/07 08:05:05;;;;;;;6.22;3.45;;;27.00;92.00;;;28.31;76.38;101398.34;5200084;28;20046;-55
2023/09/07 08:07:38;;;;;;;5.35;3.13;;;27.10;91.60;;;28.56;75.45;101390.41;5219016;28;20045;-55
2023/09/07 08:10:11;;;;;;;5.57;2.95;;;27.30;91.20;;;28.84;74.86;101401.19;5203874;28;20084;-56
2023/09/07 08:12:44;;;;;;;5.10;3.00;;;27.50;91.00;;;29.14;74.03;101399.34;5202520;28;20095;-55
2023/09/07 08:15:20;;;;;;;5.47;3.05;;;27.70;90.70;;;29.47;72.84;101397.31;5199418;28;20054;-56
2023/09/07 08:17:54;;;;;;;4.13;2.83;;;27.90;90.10;;;29.83;71.91;101391.63;5203311;28;20092;-56
2023/09/07 08:20:26;;;;;;;6.35;2.80;;;28.10;89.70;;;30.20;70.58;101396.59;5200430;28;20380;-57
2023/09/07 08:23:03;;;;;;;4.50;2.70;;;28.20;88.50;;;30.50;69.36;101390.03;5202823;28;20037;-56
2023/09/07 08:25:36;;;;;;;3.45;2.45;;;28.40;87.30;;;30.89;68.34;101386.72;5202974;28;20049;-56
2023/09/07 08:28:08;;;;;;;4.15;2.75;;;28.60;86.60;;;31.37;67.71;101382.13;5203357;28;20103;-56
2023/09/07 08:30:41;;;;;;;5.03;2.80;;;28.80;86.30;;;32.22;65.52;101388.22;5204424;28;20053;-56
2023/09/07 08:33:14;;;;;;;3.78;2.80;;;29.30;84.90;;;32.99;63.41;101385.47;5202471;28;20041;-56
2023/09/07 08:35:53;;;;;;;3.85;2.72;;;29.90;82.70;;;33.71;61.10;101391.72;5202678;28;20057;-56
2023/09/07 08:38:27;;;;;;;5.28;3.00;;;30.60;80.30;;;34.36;58.99;101380.13;5202734;28;20048;-56
2023/09/07 08:41:05;;;;;;;4.55;2.45;;;31.20;77.90;;;34.81;57.71;101380.25;5204345;28;20124;-56
2023/09/07 08:43:47;;;;;;;3.28;2.67;;;31.80;75.50;;;35.27;56.56;101382.16;5201653;28;20494;-56
2023/09/07 08:46:21;;;;;;;4.47;2.60;;;32.30;73.40;;;35.69;55.59;101381.44;5199064;28;20072;-56
2023/09/07 08:48:59;;;;;;;4.00;2.50;;;32.70;71.80;;;36.04;54.83;101383.81;5198953;28;20100;-57
2023/09/07 08:51:37;;;;;;;4.10;2.58;;;33.00;70.60;;;36.31;53.86;101386.63;5201025;28;20061;-57
2023/09/07 08:54:10;;;;;;;4.65;2.63;;;33.30;69.00;;;36.45;52.90;101383.06;5198775;28;20099;-57
2023/09/07 08:56:42;;;;;;;4.38;2.85;;;33.50;67.50;;;36.40;52.76;101389.69;5218386;28;20044;-57
2023/09/07 08:59:18;;;;;;;5.75;2.63;;;33.60;66.70;;;36.01;52.75;101378.59;5202285;28;20056;-56
2023/09/07 09:01:51;;;;;;;4.38;2.70;;;33.50;66.10;;;35.43;53.96;101384.88;5194110;28;20521;-56
2023/09/07 09:04:24;;;;;;;3.80;2.40;;;33.20;66.10;;;34.91;55.43;101380.63;5202177;28;20384;-56
2023/09/07 09:06:58;;;;;;;4.45;2.40;;;33.00;67.00;;;34.35;55.79;101379.25;5198541;28;20499;-55
2023/09/07 09:09:33;;;;;;;4.90;3.00;;;32.70;67.10;;;33.95;56.48;101376.03;5200759;28;20537;-55
2023/09/07 09:12:10;;;;;;;4.07;2.83;;;32.50;67.10;;;33.09;57.97;101382.25;5201824;28;20590;-53
2023/09/07 09:14:45;;;;;;;4.65;2.70;;;32.00;67.70;;;32.39;59.97;101374.84;5202213;28;20430;-54
2023/09/07 09:17:20;;;;;;;3.55;2.95;;;31.50;69.10;;;31.99;61.45;101370.41;5202172;28;20049;-54
2023/09/07 09:19:54;;;;;;;4.18;3.03;;;31.10;70.20;;;31.59;61.92;101373.03;5210577;28;20052;-53
2023/09/07 09:22:26;;;;;;;5.18;2.97;;;30.70;70.60;;;31.23;62.90;101370.06;5197691;28;20055;-54
2023/09/07 09:25:04;;;;;;;4.75;3.22;;;30.40;71.30;;;30.88;63.45;101368.81;5202264;28;20112;-54
2023/09/07 09:27:37;;;;;;;5.43;2.88;;;30.20;71.90;;;30.80;65.14;101365.56;5200194;28;20411;-53
2023/09/07 09:30:11;;;;;;;4.68;3.10;;;30.00;73.30;;;30.68;65.24;101363.38;5198097;28;20049;-53
2023/09/07 09:32:44;;;;;;;4.20;3.10;;;29.90;73.50;;;30.56;65.88;101353.06;5216148;28;20563;-53
2023/09/07 09:35:23;;;;;;;4.85;3.10;;;29.80;74.40;;;30.63;66.47;101357.25;5198086;28;20147;-54
2023/09/07 09:37:55;;;;;;;4.32;2.85;;;29.80;75.00;;;30.84;66.53;101345.66;5210800;28;20045;-53
2023/09/07 09:40:29;;;;;;;3.67;2.75;;;29.90;75.30;;;31.02;65.30;101344.91;5197988;28;20050;-55
2023/09/07 09:43:04;;;;;;;6.32;3.08;;;30.00;74.50;;;31.11;65.17;101342.78;5217894;28;20148;-54
2023/09/07 09:45:36;;;;;;;4.05;3.00;;;30.10;74.40;;;31.19;65.78;101340.63;5199308;28;20525;-55
2023/09/07 09:48:11;;;;;;;4.50;3.00;;;30.20;74.90;;;31.16;64.95;101335.38;5202132;28;20548;-55
2023/09/07 09:50:45;;;;;;;3.67;2.88;;;30.20;74.30;;;31.18;65.55;101333.50;5200304;28;20503;-55
2023/09/07 09:53:22;;;;;;;4.10;2.78;;;30.20;74.70;;;31.18;65.08;101329.00;5197614;28;20046;-55
2023/09/07 09:55:55;;;;;;;3.90;2.88;;;30.20;74.30;;;31.13;65.05;101331.00;5192913;28;20498;-54
2023/09/07 09:58:27;;;;;;;4.25;2.97;;;30.20;74.10;;;31.02;64.88;101328.75;5197575;28;20149;-53
2023/09/07 10:01:05;;;;;;;4.65;2.70;;;30.20;73.90;;;30.93;65.18;101318.38;5201425;28;20466;-54
2023/09/07 10:03:45;;;;;;;3.90;3.00;;;30.10;74.20;;;31.03;65.86;101321.53;5202524;28;20042;-54
2023/09/07 10:06:25;;;;;;;;;;;30.10;74.80;;;31.16;65.43;101324.59;5202086;28;20048;-54
2023/09/07 10:09:00;;;;;;;6.22;3.13;;;30.20;74.60;;;31.22;64.50;101318.94;5197425;28;20382;-55
2023/09/07 10:11:38;;;;;;;3.47;2.53;;;30.20;74.00;;;31.24;64.80;101323.38;5214640;28;20406;-55
2023/09/07 10:14:12;;;;;;;3.47;2.70;;;30.30;74.20;;;31.28;64.95;101314.22;5201180;28;20041;-55
2023/09/07 10:16:46;;;;;;;3.30;2.50;;;30.30;74.30;;;31.42;65.32;101313.59;5199332;28;20411;-55
2023/09/07 10:19:20;;;;;;;3.60;2.70;;;30.40;74.90;;;31.62;65.43;101312.72;5197241;28;20049;-55
2023/09/07 10:21:56;;;;;;;4.18;3.00;;;30.50;75.30;;;31.74;64.56;101316.69;5216945;28;20388;-54
2023/09/07 10:24:30;;;;;;;3.78;2.97;;;30.60;74.30;;;31.81;63.45;101320.88;5202410;28;20038;-54
2023/09/07 10:27:05;;;;;;;4.18;2.50;;;30.70;73.40;;;31.88;62.73;101319.66;5201036;28;20418;-55
2023/09/07 10:29:45;;;;;;;3.75;2.97;;;30.70;72.80;;;31.88;62.69;101308.88;5198364;28;20070;-55
2023/09/07 10:32:17;;;;;;;6.55;3.60;;;30.80;72.40;;;31.84;62.81;101301.88;5196695;28;20050;-55
2023/09/07 10:34:49;;;;;;;4.10;2.83;;;30.80;72.40;;;31.88;62.89;101295.38;5216545;28;20041;-55
2023/09/07 10:37:30;;;;;;;4.38;2.83;;;30.80;72.50;;;31.90;62.35;101298.03;5197185;28;20141;-55